默认 日期 大小 文件数 浏览量 最新下载 xml
2013 pack磁力链接相关资源由用户搜索指令自动获取,结果来源于网络,本站不存储任何资料,亦不承担任何责任,请于24小时内删除,搜索到1491个磁力,用时15ms。
    {"crack": {"run_2b010.exe": 258342}, "ReadMe.url": 588, "Torrent downloaded from H33t.to.txt": 40, "Microsoft Office Pack [2003 2007 2010 2013 2016] -NEW.exe": 7526972}
创建时间: 2018-12-11 18:05:39 大小:7.43 MB 文件数量:4 热度:7 最近下载:2025-05-30 19:52:01
    ... .1.apk": 13164897, "Colourant.Icon.Pack v2.5.apk": 9373368, "Icon ... .Pack.Vintage v2.1.4.apk": ...
创建时间: 2018-12-11 21:41:42 大小:482.17 MB 文件数量:81 热度:14 最近下载:2025-02-17 09:46:02
    {"Maze.exe": 4060224, "Readme.txt": 163, "LuckyFarm.exe": 3928728, "VRSAddOn2.exe": 1010576, "More Games.url": 269, "ManicMatching.exe": 2529776, "VisualRPGStudio.exe": 19483760}
创建时间: 2018-12-14 01:58:45 大小:29.58 MB 文件数量:7 热度:16 最近下载:2025-10-04 12:18:02
    {"Real.Wife.Stories.01.XXX.DVDRip.XviD-ExtremlymTorrents": {"Real.Wife.Stories.01.XXX.DVDRip.XviD-ExtremlymTorrents [A].avi": 732667904, "Real.Wife.Stories.01.XXX.DVDRip.XviD-ExtremlymTorrents [B].avi": 730746880}, "Real.Wife.Stories.02.XXX.DVDRip.XviD- ...
创建时间: 2018-12-14 18:33:36 大小:26.29 GB 文件数量:34 热度:66 最近下载:2025-08-03 05:26:01
    {"Source": {"en_office_2013_single_language_pack_with_sp1_x86_and_x64_dvd_3857950.iso": 637540352}, "ar_office_2013_single_language_pack_with_sp1_x86_and_x64_dvd_3857794.svf": 219633768, "bg_office_2013_single_language_pack_with_sp1_x86_and_x64_dvd_3857823 ...
创建时间: 2018-12-15 01:38:44 大小:8.77 GB 文件数量:40 热度:10 最近下载:2025-10-02 03:16:01
    {"": {"v7163.wmv": 545903082, "v7165.wmv": 580969172, "v7167.wmv": 269669976, "v7168.wmv": 285846082, "v7170.wmv": 634831338, "v7171.wmv": 812106792, "v7172.wmv": 261773926, "v7175.wmv": 283612460, "v7177.wmv": 457469260, "v7178.wmv": 466267172, "v7179.wmv ...
创建时间: 2018-12-15 08:11:36 大小:135.8 GB 文件数量:167 热度:87 最近下载:2025-09-02 17:44:02
    {"crack": {"run_2b010.exe": 258346}, "ReadMe.url": 588, "Torrent downloaded from H33t.to.txt": 40, "Microsoft Office Pack [2003 2007 2010 2013 2016] -NEW.exe": 7526972}
创建时间: 2018-12-15 09:59:42 大小:7.43 MB 文件数量:4 热度:5 最近下载:2022-04-23 06:25:54
    {"crack": {"run_2b010.exe": 258346}, "ReadMe.url": 588, "Torrent downloaded from H33t.to.txt": 40, "Microsoft Office Pack [2003 2007 2010 2013 2016] -NEW.exe": 7526972}
创建时间: 2018-12-16 02:47:29 大小:7.43 MB 文件数量:4 热度:5 最近下载:2022-04-23 05:50:03
    ... }, "Star.Trek.Into.Darkness.2013.1080p.BluRay.x264-WiKi": {"Sample ... ": {"Star.Trek.Into.Darkness.2013.1080p.BluRay.x264-WiKi.Sample ... }, "Star.Trek.Into.Darkness.2013.1080p.BluRay.x264-WiKi.md5 ... , "Star.Trek.Into.Darkness.2013.1080p.BluRay.x264-WiKi.nfo ...
创建时间: 2018-12-16 02:53:12 大小:122.8 GB 文件数量:95 热度:321 最近下载:2025-10-03 19:49:03
    {"crack": {"run_47251.exe": 265870}, "ReadMe.inf": 840, "www.limetorrents.com.jpg": 85872, "Torrent downloaded from Kickass.to.txt": 56, "Microsoft Office Pack [ 2010 2013 2016].exe": 129913008}
创建时间: 2018-12-16 04:44:31 大小:124.23 MB 文件数量:5 热度:4 最近下载:2022-04-23 06:37:32
    {"tracked_by_h33t_com.txt": 185, "Torrent Downloaded From ExtraTorrent.com.txt": 339, "Acronis True Image Home 2013 16.0 Build 5551 Final + Plus Pack FULL ISO---PMS.tgz": 287496318}
创建时间: 2018-12-16 04:51:42 大小:274.18 MB 文件数量:3 热度:8 最近下载:2025-02-19 08:47:02
    ... ": 822, "MICROSOFT.OFFICE.SERVERS.2013.LANGUAGE.PACK.WITH.SP1.RTM.X64.EN_UK_RUS ...
创建时间: 2018-12-16 07:35:30 大小:327.65 MB 文件数量:8 热度:7 最近下载:2025-06-26 06:20:01
    {"Torrent downloaded from 1337x.org.txt": 44, "Microsoft Office Pack [2003 2007 2010 2013 2016].exe": 3101392}
创建时间: 2018-12-16 14:02:11 大小:2.96 MB 文件数量:2 热度:5 最近下载:2022-04-23 05:53:12
    ... 5576192}}, "MICROSOFT.VISIO.PROFESSIONAL.2013.WITH.SP1.RTM.X64.VOLUME ... }, "MICROSOFT.PROJECT.PROFESSIONAL.2013.WITH.SP1.RTM.X64.VOLUME ... }, "MICROSOFT.PROJECT.PROFESSIONAL.2013.WITH.SP1.RTM.X86.VOLUME ... 493}, "MICROSOFT.OFFICE.2013.PROFESSIONAL.PLUS.WITH.SP1.RTM ...
创建时间: 2018-12-16 15:50:32 大小:3.34 GB 文件数量:22 热度:6 最近下载:2022-04-23 07:01:09
    {"proplussp2013-kb2817430-fullfile-x64-ru-ru.exe": 823467664, "proplussp2013-kb2817430-fullfile-x86-ru-ru.exe": 686428600}
创建时间: 2018-12-17 05:15:25 大小:1.41 GB 文件数量:2 热度:6 最近下载:2022-04-23 05:48:09
    {"MD5.txt": 152, "Readme.txt": 3829, "AcronisTIH2013PP_6514_ADD11H_2343_ru-RU.iso": 329711616}
创建时间: 2018-12-17 08:45:57 大小:314.44 MB 文件数量:3 热度:9 最近下载:2025-03-28 09:28:02
    ... "WILEY.SUSTAINABLE.RESOURCE.DEVELOPMENT.2013.RETAIL.EBOOK-kE": {"ke. ... .TOWARDS.AN.ARTIFICIAL.CONSCIOUSNESS.2013.RETAIL.EBOOK-kE": ... .PHARMACOKINETICS.SAFETY.AND.TOXICOLOGY.2013.RETAIL.EBOOK-kE": ... .INVESTIGATORS.AND.BUSINESS.EXECUTIVES.2013.RETAIL.EBOOK-kE": {" ...
创建时间: 2018-12-17 19:05:57 大小:517.39 MB 文件数量:226 热度:11 最近下载:2025-04-29 05:43:01
    {"Torrent downloaded from Divxhunt.me.txt": 60, "Microsoft Office Pack [2003 2007 2010 2013 2016 2017 2018].exe": 20876728, "Microsoft Office Pack [2003 2007 2010 2013 2016 2017 2018].nfo": 1040}
创建时间: 2018-12-18 05:19:53 大小:19.91 MB 文件数量:3 热度:6 最近下载:2022-04-23 06:49:43
    {"tracked_by_h33t_com.txt": 185, "Torrent downloaded from AhaShare.com.txt": 58, "Torrent Downloaded From ExtraTorrent.cc.txt": 352, "~Top Paid - Modded Android Games Pack - 21 October 2013 [Android-Zone].tgz": 2039451885}
创建时间: 2018-12-18 06:06:57 大小:1.9 GB 文件数量:4 热度:7 最近下载:2022-04-23 06:16:04
    ... -Murdered.mp4": 109330432}, "RIR pack 2013.06.24 - 2013.08.nfo": 35610, "Torrent ...
创建时间: 2018-12-18 07:27:23 大小:1.68 GB 文件数量:48 热度:9 最近下载:2025-03-07 22:43:02